createdAt,value
2019-03-16T00:00:32.063Z,40.8
2019-03-16T00:01:22.092Z,40.8
2019-03-16T00:02:11.339Z,40.8
2019-03-16T00:03:01.942Z,40.8
2019-03-16T00:03:51.427Z,40.8
2019-03-16T00:04:41.766Z,40.8
2019-03-16T00:05:31.388Z,40.8
2019-03-16T00:06:21.423Z,40.8
2019-03-16T00:07:10.909Z,40.8
2019-03-16T00:08:01.534Z,40.8
2019-03-16T00:08:51.791Z,40.8
2019-03-16T00:09:42.696Z,40.8
2019-03-16T00:10:32.455Z,40.8
2019-03-16T00:11:22.261Z,40.8
2019-03-16T00:12:12.115Z,40.8
2019-03-16T00:13:02.623Z,40.7
2019-03-16T00:13:52.510Z,40.7
2019-03-16T00:14:42.213Z,40.7
2019-03-16T00:15:32.290Z,40.7
2019-03-16T00:16:22.391Z,40.7
2019-03-16T00:17:24.438Z,40.7
2019-03-16T00:18:02.218Z,40.6
2019-03-16T00:18:52.213Z,40.6
2019-03-16T00:19:43.093Z,40.6
2019-03-16T00:20:33.445Z,40.6
2019-03-16T00:21:22.668Z,40.6
2019-03-16T00:22:12.755Z,40.6
2019-03-16T00:23:03.783Z,40.6
2019-03-16T00:23:52.862Z,40.6
2019-03-16T00:24:43.449Z,40.6
2019-03-16T00:25:33.357Z,40.6
2019-03-16T00:26:23.044Z,40.6
2019-03-16T00:27:13.651Z,40.6
2019-03-16T00:28:03.152Z,40.6
2019-03-16T00:28:53.227Z,40.6
2019-03-16T00:29:43.877Z,40.6
2019-03-16T00:30:33.140Z,40.6
2019-03-16T00:31:23.925Z,40.6
2019-03-16T00:32:19.507Z,40.6
2019-03-16T00:33:03.024Z,40.6
2019-03-16T00:33:53.914Z,40.6
2019-03-16T00:34:43.149Z,40.6
2019-03-16T00:35:33.238Z,40.6
2019-03-16T00:36:24.022Z,40.5
2019-03-16T00:37:14.074Z,40.5
2019-03-16T00:38:04.137Z,40.5
2019-03-16T00:38:54.464Z,40.5
2019-03-16T00:39:44.257Z,40.5
2019-03-16T00:40:34.359Z,40.5
2019-03-16T00:41:24.638Z,40.4
2019-03-16T00:42:14.792Z,40.5
2019-03-16T00:43:05.077Z,40.5
2019-03-16T00:43:54.549Z,40.4
2019-03-16T00:44:44.336Z,40.4
2019-03-16T00:45:34.398Z,40.4
2019-03-16T00:46:24.821Z,40.4
2019-03-16T00:47:14.249Z,40.4
2019-03-16T00:48:05.408Z,40.4
2019-03-16T00:48:55.186Z,40.4
2019-03-16T00:49:45.519Z,40.4
2019-03-16T00:50:35.028Z,40.4
2019-03-16T00:51:25.436Z,40.4
2019-03-16T00:52:15.501Z,40.4
2019-03-16T00:53:04.908Z,40.4
2019-03-16T00:53:54.991Z,40.4
2019-03-16T00:54:45.038Z,40.4
2019-03-16T00:55:34.816Z,40.4
2019-03-16T00:56:25.446Z,40.4
2019-03-16T00:57:15.516Z,40.4
2019-03-16T00:58:05.261Z,40.4
2019-03-16T00:58:55.313Z,40.4
2019-03-16T00:59:45.730Z,40.4
2019-03-16T01:00:35.808Z,40.3
2019-03-16T01:01:25.773Z,40.3
2019-03-16T01:02:33.461Z,40.3
2019-03-16T01:03:05.906Z,40.3
2019-03-16T01:03:56.531Z,40.3
2019-03-16T01:04:46.313Z,40.3
2019-03-16T01:05:36.135Z,40.3
2019-03-16T01:06:25.326Z,40.3
2019-03-16T01:07:15.367Z,40.3
2019-03-16T01:08:06.023Z,40.3
2019-03-16T01:08:56.068Z,40.3
2019-03-16T01:09:49.208Z,40.3
2019-03-16T01:10:36.472Z,40.3
2019-03-16T01:11:26.782Z,40.3
2019-03-16T01:12:16.925Z,40.3
2019-03-16T01:13:06.067Z,40.3
2019-03-16T01:13:56.133Z,40.3
2019-03-16T01:14:47.027Z,40.3
2019-03-16T01:15:36.569Z,40.3
2019-03-16T01:16:27.172Z,40.3
2019-03-16T01:17:16.976Z,40.3
2019-03-16T01:18:07.247Z,40.3
2019-03-16T01:18:56.999Z,40.2
2019-03-16T01:19:47.417Z,40.2
2019-03-16T01:20:37.124Z,40.2
2019-03-16T01:21:27.787Z,40.2
2019-03-16T01:22:17.277Z,40.2
2019-03-16T01:23:07.060Z,40.2
2019-03-16T01:23:57.669Z,40.2
2019-03-16T01:25:37.779Z,40.2
2019-03-16T01:26:27.370Z,40.2
2019-03-16T01:27:18.161Z,40.2
2019-03-16T01:28:07.966Z,40.1
2019-03-16T01:28:57.751Z,40.2
2019-03-16T01:29:47.241Z,40.1
2019-03-16T01:30:37.127Z,40.1
2019-03-16T01:31:28.204Z,40.1
2019-03-16T01:32:18.242Z,40.1
2019-03-16T01:33:08.603Z,40.1
2019-03-16T01:33:58.085Z,40.1
2019-03-16T01:34:49.698Z,40.1
2019-03-16T01:35:38.499Z,40.1
2019-03-16T01:36:28.823Z,40.1
2019-03-16T01:37:16.949Z,40.1
2019-03-16T01:38:08.393Z,40.1
2019-03-16T01:38:57.890Z,40.1
2019-03-16T01:39:48.500Z,40.1
2019-03-16T01:40:38.448Z,40.1
2019-03-16T01:41:28.153Z,40.1
2019-03-16T01:42:18.488Z,40.1
2019-03-16T01:43:08.653Z,40.1
2019-03-16T01:43:57.788Z,40.1
2019-03-16T01:44:48.596Z,40.1
2019-03-16T01:45:38.918Z,40
2019-03-16T01:46:29.049Z,40
2019-03-16T01:47:19.333Z,40
2019-03-16T01:48:09.116Z,40
2019-03-16T01:48:59.148Z,40
2019-03-16T01:49:49.208Z,40
2019-03-16T01:50:39.665Z,40
2019-03-16T01:51:29.068Z,40
2019-03-16T01:52:18.932Z,40
2019-03-16T01:53:09.172Z,39.9
2019-03-16T01:53:59.076Z,39.9
2019-03-16T01:54:49.847Z,40
2019-03-16T01:55:39.977Z,39.9
2019-03-16T01:56:30.253Z,39.9
2019-03-16T01:57:19.849Z,39.9
2019-03-16T01:58:10.084Z,39.9
2019-03-16T01:58:59.864Z,39.9
2019-03-16T01:59:49.942Z,39.9
2019-03-16T02:00:40.245Z,39.9
2019-03-16T02:01:30.352Z,39.9
2019-03-16T02:02:19.557Z,39.9
2019-03-16T02:03:10.172Z,39.9
2019-03-16T02:04:00.304Z,39.9
2019-03-16T02:04:50.634Z,39.9
2019-03-16T02:05:39.288Z,39.9
2019-03-16T02:06:30.777Z,39.9
2019-03-16T02:07:20.777Z,39.9
2019-03-16T02:08:10.594Z,39.9
2019-03-16T02:08:59.824Z,39.9
2019-03-16T02:09:50.136Z,39.9
2019-03-16T02:10:40.409Z,39.8
2019-03-16T02:11:30.736Z,39.9
2019-03-16T02:12:20.526Z,39.8
2019-03-16T02:13:10.656Z,39.8
2019-03-16T02:14:01.203Z,39.8
2019-03-16T02:14:50.992Z,39.8
2019-03-16T02:15:41.061Z,39.8
2019-03-16T02:16:30.853Z,39.8
2019-03-16T02:17:20.891Z,39.8
2019-03-16T02:18:09.841Z,39.8
2019-03-16T02:19:01.553Z,39.8
2019-03-16T02:19:51.326Z,39.8
2019-03-16T02:20:41.116Z,39.8
2019-03-16T02:21:31.507Z,39.8
2019-03-16T02:22:21.571Z,39.8
2019-03-16T02:23:11.598Z,39.8
2019-03-16T02:24:01.443Z,39.8
2019-03-16T02:24:52.313Z,39.8
2019-03-16T02:25:41.793Z,39.8
2019-03-16T02:26:32.075Z,39.8
2019-03-16T02:27:22.429Z,39.8
2019-03-16T02:28:12.198Z,39.8
2019-03-16T02:29:02.536Z,39.7
2019-03-16T02:29:52.400Z,39.7
2019-03-16T02:30:41.338Z,39.7
2019-03-16T02:31:32.513Z,39.7
2019-03-16T02:32:21.571Z,39.7
2019-03-16T02:33:19.699Z,39.7
2019-03-16T02:34:02.108Z,39.7
2019-03-16T02:34:52.824Z,39.7
2019-03-16T02:35:42.291Z,39.7
2019-03-16T02:36:31.768Z,39.7
2019-03-16T02:37:22.654Z,39.7
2019-03-16T02:38:12.417Z,39.7
2019-03-16T02:39:03.097Z,39.7
2019-03-16T02:39:52.289Z,39.6
2019-03-16T02:40:42.740Z,39.6
2019-03-16T02:41:33.257Z,39.6
2019-03-16T02:42:23.471Z,39.6
2019-03-16T02:43:13.045Z,39.6
2019-03-16T02:44:03.105Z,39.6
2019-03-16T02:44:53.044Z,39.6
2019-03-16T02:45:42.835Z,39.6
2019-03-16T02:46:33.843Z,39.6
2019-03-16T02:47:23.016Z,39.6
2019-03-16T02:48:13.025Z,39.6
2019-03-16T02:49:02.993Z,39.6
2019-03-16T02:49:53.530Z,39.6
2019-03-16T02:50:43.392Z,39.6
2019-03-16T02:51:33.422Z,39.6
2019-03-16T02:52:23.806Z,39.6
2019-03-16T02:53:13.967Z,39.6
2019-03-16T02:54:03.323Z,39.6
2019-03-16T02:54:54.014Z,39.6
2019-03-16T02:55:43.654Z,39.6
2019-03-16T02:56:34.281Z,39.6
2019-03-16T02:57:24.021Z,39.6
2019-03-16T02:58:13.871Z,39.5
2019-03-16T02:59:03.986Z,39.5
2019-03-16T02:59:54.678Z,39.5
2019-03-16T03:00:44.554Z,39.5
2019-03-16T03:01:34.338Z,39.5
2019-03-16T03:02:24.787Z,39.5
2019-03-16T03:03:33.174Z,39.5
2019-03-16T03:04:04.158Z,39.5
2019-03-16T03:07:36.796Z,39.4
2019-03-16T03:08:26.526Z,39.4
2019-03-16T03:09:16.291Z,39.4
2019-03-16T03:10:06.767Z,39.4
2019-03-16T03:10:56.984Z,39.4
2019-03-16T03:11:46.468Z,39.4
2019-03-16T03:12:37.127Z,39.4
2019-03-16T03:13:26.629Z,39.4
2019-03-16T03:14:17.419Z,39.4
2019-03-16T03:15:07.256Z,39.4
2019-03-16T03:15:57.316Z,39.4
2019-03-16T03:16:47.401Z,39.4
2019-03-16T03:17:37.213Z,39.4
2019-03-16T03:18:26.935Z,39.4
2019-03-16T03:19:17.335Z,39.4
2019-03-16T03:20:07.140Z,39.4
2019-03-16T03:20:57.298Z,39.4
2019-03-16T03:21:47.755Z,39.4
2019-03-16T03:22:38.006Z,39.4
2019-03-16T03:23:27.848Z,39.4
2019-03-16T03:24:17.346Z,39.4
2019-03-16T03:25:07.452Z,39.3
2019-03-16T03:25:57.862Z,39.4
2019-03-16T03:26:47.699Z,39.4
2019-03-16T03:27:37.748Z,39.3
2019-03-16T03:28:28.229Z,39.3
2019-03-16T03:29:18.244Z,39.3
2019-03-16T03:30:08.892Z,39.3
2019-03-16T03:30:58.279Z,39.3
2019-03-16T03:31:48.090Z,39.3
2019-03-16T03:32:39.236Z,39.3
2019-03-16T03:34:01.255Z,39.3
2019-03-16T03:34:18.445Z,39.3
2019-03-16T03:35:08.812Z,39.3
2019-03-16T03:35:58.440Z,39.3
2019-03-16T03:36:48.368Z,39.3
2019-03-16T03:37:38.056Z,39.3
2019-03-16T03:38:28.345Z,39.3
2019-03-16T03:39:17.860Z,39.3
2019-03-16T03:40:08.774Z,39.3
2019-03-16T03:41:04.325Z,39.3
2019-03-16T03:41:48.938Z,39.3
2019-03-16T03:42:39.342Z,39.3
2019-03-16T03:43:29.018Z,39.3
2019-03-16T03:44:19.436Z,39.3
2019-03-16T03:45:08.917Z,39.3
2019-03-16T03:45:59.153Z,39.2
2019-03-16T03:46:48.952Z,39.2
2019-03-16T03:47:39.324Z,39.2
2019-03-16T03:48:29.443Z,39.2
2019-03-16T03:49:19.501Z,39.2
2019-03-16T03:50:09.505Z,39.2
2019-03-16T03:50:59.587Z,39.2
2019-03-16T03:51:49.570Z,39.2
2019-03-16T03:52:39.363Z,39.2
2019-03-16T03:53:29.672Z,39.2
2019-03-16T03:54:19.253Z,39.2
2019-03-16T03:55:09.927Z,39.2
2019-03-16T03:56:00.019Z,39.2
2019-03-16T03:56:49.928Z,39.1
2019-03-16T03:57:40.121Z,39.1
2019-03-16T03:58:29.799Z,39.1
2019-03-16T03:59:20.264Z,39.1
2019-03-16T04:00:09.927Z,39.1
2019-03-16T04:01:00.154Z,39.1
2019-03-16T04:01:50.000Z,39.1
2019-03-16T04:02:40.406Z,39.1
2019-03-16T04:03:30.415Z,39.1
2019-03-16T04:04:22.298Z,39.1
2019-03-16T04:05:10.486Z,39.1
2019-03-16T04:05:59.724Z,39.1
2019-03-16T04:06:50.659Z,39.1
2019-03-16T04:07:40.690Z,39.1
2019-03-16T04:08:30.810Z,39.1
2019-03-16T04:09:20.855Z,39.1
2019-03-16T04:10:11.210Z,39.1
2019-03-16T04:11:00.642Z,39.1
2019-03-16T04:11:51.308Z,39.1
2019-03-16T04:12:41.266Z,39.1
2019-03-16T04:13:30.824Z,39.1
2019-03-16T04:14:21.008Z,39.1
2019-03-16T04:15:10.970Z,39
2019-03-16T04:16:01.042Z,39
2019-03-16T04:16:51.389Z,39.1
2019-03-16T04:17:41.216Z,39
2019-03-16T04:18:31.571Z,39
2019-03-16T04:19:21.809Z,39
2019-03-16T04:20:11.309Z,39
2019-03-16T04:21:01.346Z,39
2019-03-16T04:21:51.827Z,39
2019-03-16T04:22:41.849Z,39
2019-03-16T04:23:31.782Z,39
2019-03-16T04:24:21.705Z,38.9
2019-03-16T04:25:26.393Z,38.9
2019-03-16T04:26:02.250Z,38.9
2019-03-16T04:26:51.749Z,38.9
2019-03-16T04:27:42.214Z,38.9
2019-03-16T04:28:31.982Z,38.9
2019-03-16T04:29:21.940Z,38.9
2019-03-16T04:30:12.297Z,38.9
2019-03-16T04:31:02.164Z,38.9
2019-03-16T04:31:52.166Z,38.9
2019-03-16T04:32:42.448Z,38.9
2019-03-16T04:33:32.839Z,38.9
2019-03-16T04:34:35.449Z,38.9
2019-03-16T04:35:12.333Z,38.9
2019-03-16T04:36:03.018Z,38.9
2019-03-16T04:36:52.669Z,38.9
2019-03-16T04:37:42.909Z,38.9
2019-03-16T04:38:32.557Z,38.9
2019-03-16T04:39:23.218Z,38.8
2019-03-16T04:40:13.271Z,38.9
2019-03-16T04:41:02.405Z,38.8
2019-03-16T04:41:52.490Z,38.8
2019-03-16T04:42:42.689Z,38.8
2019-03-16T04:43:31.539Z,38.8
2019-03-16T04:44:22.514Z,38.8
2019-03-16T04:45:13.047Z,38.8
2019-03-16T04:46:02.811Z,38.8
2019-03-16T04:46:52.598Z,38.8
2019-03-16T04:47:43.463Z,38.8
2019-03-16T04:48:33.211Z,38.8
2019-03-16T04:49:22.716Z,38.8
2019-03-16T04:50:13.344Z,38.8
2019-03-16T04:51:03.478Z,38.8
2019-03-16T04:51:53.717Z,38.8
2019-03-16T04:52:44.090Z,38.8
2019-03-16T04:53:33.859Z,38.8
2019-03-16T04:54:23.911Z,38.8
2019-03-16T04:55:13.556Z,38.8
2019-03-16T04:56:04.287Z,38.8
2019-03-16T04:56:54.389Z,38.8
2019-03-16T04:57:43.927Z,38.8
2019-03-16T04:58:34.039Z,38.8
2019-03-16T04:59:24.114Z,38.8
2019-03-16T05:00:14.758Z,38.8
2019-03-16T05:01:04.876Z,38.8
2019-03-16T05:01:53.884Z,38.7
2019-03-16T05:02:44.931Z,38.8
2019-03-16T05:03:34.641Z,38.7
2019-03-16T05:04:24.651Z,38.7
2019-03-16T05:05:14.199Z,38.7
2019-03-16T05:06:03.963Z,38.7
2019-03-16T05:06:55.086Z,38.7
2019-03-16T05:07:45.133Z,38.7
2019-03-16T05:08:34.970Z,38.7
2019-03-16T05:09:24.971Z,38.7
2019-03-16T05:10:15.308Z,38.7
2019-03-16T05:11:05.606Z,38.6
2019-03-16T05:11:55.116Z,38.6
2019-03-16T05:12:45.250Z,38.6
2019-03-16T05:13:34.970Z,38.6
2019-03-16T05:14:25.021Z,38.6
2019-03-16T05:15:14.887Z,38.6
2019-03-16T05:16:05.152Z,38.6
2019-03-16T05:16:55.480Z,38.6
2019-03-16T05:17:45.832Z,38.6
2019-03-16T05:18:35.867Z,38.6
2019-03-16T05:19:25.442Z,38.6
2019-03-16T05:20:15.465Z,38.6
2019-03-16T05:21:05.880Z,38.6
2019-03-16T05:21:56.102Z,38.6
2019-03-16T05:22:45.914Z,38.6
2019-03-16T05:23:36.264Z,38.6
2019-03-16T05:24:26.287Z,38.6
2019-03-16T05:25:16.095Z,38.6
2019-03-16T05:26:05.631Z,38.6
2019-03-16T05:26:56.534Z,38.6
2019-03-16T05:27:45.234Z,38.6
2019-03-16T05:28:36.576Z,38.6
2019-03-16T05:29:26.108Z,38.6
2019-03-16T05:30:16.403Z,38.5
2019-03-16T05:31:06.498Z,38.5
2019-03-16T05:31:56.979Z,38.5
2019-03-16T05:32:46.607Z,38.5
2019-03-16T05:33:36.942Z,38.5
2019-03-16T05:34:26.531Z,38.5
2019-03-16T05:35:16.801Z,38.5
2019-03-16T05:36:06.626Z,38.5
2019-03-16T05:37:00.096Z,38.5
2019-03-16T05:37:47.002Z,38.5
2019-03-16T05:38:37.037Z,38.5
2019-03-16T05:39:26.793Z,38.5
2019-03-16T05:40:16.852Z,38.4
2019-03-16T05:41:07.441Z,38.4
2019-03-16T05:41:57.301Z,38.4
2019-03-16T05:42:47.596Z,38.4
2019-03-16T05:43:37.698Z,38.4
2019-03-16T05:44:26.635Z,38.4
2019-03-16T05:45:17.349Z,38.4
2019-03-16T05:46:07.543Z,38.4
2019-03-16T05:46:57.871Z,38.4
2019-03-16T05:47:47.928Z,38.4
2019-03-16T05:48:37.719Z,38.4
2019-03-16T05:49:27.819Z,38.4
2019-03-16T05:50:18.118Z,38.4
2019-03-16T05:51:08.184Z,38.4
2019-03-16T05:51:58.263Z,38.4
2019-03-16T05:52:47.743Z,38.4
2019-03-16T05:53:38.358Z,38.4
2019-03-16T05:54:28.458Z,38.4
2019-03-16T05:55:18.683Z,38.4
2019-03-16T05:56:08.526Z,38.4
2019-03-16T05:56:58.602Z,38.4
2019-03-16T05:57:48.662Z,38.3
2019-03-16T05:58:38.198Z,38.4
2019-03-16T05:59:28.220Z,38.4
2019-03-16T06:00:18.862Z,38.3
2019-03-16T06:01:08.878Z,38.3
2019-03-16T06:01:58.739Z,38.3
2019-03-16T06:02:48.735Z,38.3
2019-03-16T06:03:38.314Z,38.3
2019-03-16T06:05:35.117Z,38.3
2019-03-16T06:06:28.897Z,38.3
2019-03-16T06:07:16.206Z,38.3
2019-03-16T06:08:06.492Z,38.3
2019-03-16T06:08:56.179Z,38.3
2019-03-16T06:09:46.245Z,38.3
2019-03-16T06:10:35.560Z,38.3
2019-03-16T06:11:26.365Z,38.3
2019-03-16T06:12:16.482Z,38.3
2019-03-16T06:13:07.057Z,38.3
2019-03-16T06:13:56.522Z,38.3
2019-03-16T06:14:47.159Z,38.3
2019-03-16T06:15:36.372Z,38.3
2019-03-16T06:16:26.975Z,38.3
2019-03-16T06:17:16.211Z,38.2
2019-03-16T06:18:07.376Z,38.2
2019-03-16T06:18:56.869Z,38.2
2019-03-16T06:19:46.951Z,38.2
2019-03-16T06:20:36.989Z,38.2
2019-03-16T06:21:27.606Z,38.1
2019-03-16T06:22:16.846Z,38.1
2019-03-16T06:23:07.729Z,38.1
2019-03-16T06:23:57.242Z,38.1
2019-03-16T06:24:47.009Z,38.1
2019-03-16T06:25:38.044Z,38.1
2019-03-16T06:26:27.132Z,38.1
2019-03-16T06:27:17.171Z,38.1
2019-03-16T06:28:07.800Z,38.1
2019-03-16T06:28:57.866Z,38.1
2019-03-16T06:29:48.224Z,38.1
2019-03-16T06:30:38.058Z,38.1
2019-03-16T06:31:27.644Z,38.1
2019-03-16T06:32:17.926Z,38.1
2019-03-16T06:33:07.611Z,38.1
2019-03-16T06:33:57.651Z,38.1
2019-03-16T06:34:47.728Z,38.1
2019-03-16T06:35:38.598Z,38.1
2019-03-16T06:36:28.463Z,38
2019-03-16T06:37:18.198Z,38.1
2019-03-16T06:38:08.538Z,38
2019-03-16T06:38:58.105Z,38.1
2019-03-16T06:39:47.808Z,38
2019-03-16T06:40:38.217Z,38
2019-03-16T06:41:28.207Z,38
2019-03-16T06:42:18.794Z,37.9
2019-03-16T06:43:08.881Z,37.9
2019-03-16T06:43:58.404Z,37.9
2019-03-16T06:44:48.793Z,37.9
2019-03-16T06:45:38.740Z,37.9
2019-03-16T06:46:29.240Z,37.9
2019-03-16T06:47:18.333Z,37.9
2019-03-16T06:48:08.481Z,37.9
2019-03-16T06:48:59.336Z,37.9
2019-03-16T06:49:48.854Z,37.9
2019-03-16T06:50:39.398Z,37.9
2019-03-16T06:51:29.465Z,37.9
2019-03-16T06:52:19.224Z,37.9
2019-03-16T06:53:08.730Z,32.6
2019-03-16T06:53:58.804Z,21.8
2019-03-16T06:54:49.144Z,19.3
2019-03-16T06:55:39.314Z,19.4
2019-03-16T06:56:29.895Z,19.9
2019-03-16T06:57:18.857Z,20.6
2019-03-16T06:58:09.637Z,21.6
2019-03-16T06:59:03.348Z,30.8
2019-03-16T06:59:49.591Z,40.8
2019-03-16T07:00:39.542Z,46.2
2019-03-16T07:01:30.208Z,48.1
2019-03-16T07:02:20.473Z,48.4
2019-03-16T07:03:10.279Z,48.3
2019-03-16T07:05:43.810Z,47.3
2019-03-16T07:06:25.934Z,46.8
2019-03-16T07:07:16.071Z,46.5
2019-03-16T07:08:06.072Z,46.1
2019-03-16T07:08:56.141Z,45.8
2019-03-16T07:09:45.989Z,45.5
2019-03-16T07:10:36.243Z,45.2
2019-03-16T07:11:25.818Z,44.8
2019-03-16T07:12:16.434Z,44.6
2019-03-16T07:13:06.446Z,44.3
2019-03-16T07:13:56.312Z,44.1
2019-03-16T07:14:46.524Z,41.9
2019-03-16T07:15:36.611Z,47
2019-03-16T07:16:26.429Z,50.8
2019-03-16T07:17:16.149Z,51.1
2019-03-16T07:18:06.788Z,49.1
2019-03-16T07:19:04.701Z,47.4
2019-03-16T07:19:47.257Z,46.3
2019-03-16T07:20:37.240Z,45.8
2019-03-16T07:21:27.293Z,45.3
2019-03-16T07:22:17.328Z,44.8
2019-03-16T07:23:06.566Z,44.4
2019-03-16T07:23:56.906Z,44
2019-03-16T07:24:47.863Z,43.6
2019-03-16T07:25:37.289Z,43.3
2019-03-16T07:26:27.328Z,43.1
2019-03-16T07:27:31.701Z,42.8
2019-03-16T07:28:07.843Z,43.4
2019-03-16T07:28:57.528Z,44.9
2019-03-16T07:29:47.300Z,45.8
2019-03-16T07:30:40.963Z,45.9
2019-03-16T07:31:27.473Z,45.5
2019-03-16T07:32:17.793Z,45.1
2019-03-16T07:33:07.582Z,44.8
2019-03-16T07:33:57.587Z,44.3
2019-03-16T07:34:48.012Z,43.9
2019-03-16T07:35:38.020Z,43.5
2019-03-16T07:36:28.457Z,43.1
2019-03-16T07:37:18.127Z,42.8
2019-03-16T07:38:08.504Z,42.6
2019-03-16T07:38:57.767Z,42.3
2019-03-16T07:39:48.013Z,42.1
2019-03-16T07:40:39.004Z,41.9
2019-03-16T07:41:28.435Z,41.9
2019-03-16T07:42:18.739Z,44.3
2019-03-16T07:43:09.087Z,48.1
2019-03-16T07:43:58.857Z,50.3
2019-03-16T07:44:48.463Z,51.1
2019-03-16T07:45:39.290Z,50.8
2019-03-16T07:46:28.532Z,50.1
2019-03-16T07:47:18.832Z,49.6
2019-03-16T07:48:08.979Z,49.2
2019-03-16T07:48:59.260Z,49.1
2019-03-16T07:49:49.023Z,49.3
2019-03-16T07:50:39.103Z,50.1
2019-03-16T07:51:29.118Z,51.3
2019-03-16T07:53:08.976Z,52.8
2019-03-16T07:53:59.298Z,52.6
2019-03-16T07:54:49.377Z,52.6
2019-03-16T07:55:43.091Z,52.8
2019-03-16T07:56:29.536Z,53.1
2019-03-16T07:57:19.296Z,53.3
2019-03-16T07:58:09.366Z,53.3
2019-03-16T07:58:59.651Z,53.2
2019-03-16T07:59:49.433Z,53.1
2019-03-16T08:00:39.492Z,52.9
2019-03-16T08:01:29.819Z,52.9
2019-03-16T08:02:20.212Z,52.8
2019-03-16T08:03:09.387Z,52.6
2019-03-16T08:03:58.905Z,52.6
2019-03-16T08:04:49.884Z,52.9
2019-03-16T08:05:39.964Z,53.3
2019-03-16T08:06:33.072Z,53.5
2019-03-16T08:07:20.136Z,53.8
2019-03-16T08:08:09.265Z,54.3
2019-03-16T08:09:00.586Z,54.8
2019-03-16T08:09:49.681Z,55.3
2019-03-16T08:10:39.961Z,55.8
2019-03-16T08:11:30.053Z,56.2
2019-03-16T08:12:20.408Z,56.6
2019-03-16T08:13:09.180Z,56.9
2019-03-16T08:14:00.235Z,57.2
2019-03-16T08:14:50.485Z,57.4
2019-03-16T08:15:40.626Z,57.6
2019-03-16T08:16:30.610Z,57.9
2019-03-16T08:17:20.660Z,58.1
2019-03-16T08:18:13.099Z,58.4
2019-03-16T08:19:01.363Z,58.6
2019-03-16T08:19:51.193Z,58.9
2019-03-16T08:20:41.725Z,59
2019-03-16T08:21:31.905Z,59.1
2019-03-16T08:22:21.302Z,59.2
2019-03-16T08:23:11.627Z,59.3
2019-03-16T08:24:01.768Z,59.4
2019-03-16T08:24:52.005Z,59.4
2019-03-16T08:25:40.717Z,59.5
2019-03-16T08:26:31.050Z,59.6
2019-03-16T08:27:21.647Z,59.7
2019-03-16T08:28:12.249Z,59.8
2019-03-16T08:29:05.403Z,59.9
2019-03-16T08:29:51.815Z,60.1
2019-03-16T08:30:42.268Z,60.2
2019-03-16T08:31:32.217Z,60.3
2019-03-16T08:32:21.714Z,60.4
2019-03-16T08:33:11.792Z,60.4
2019-03-16T08:34:02.420Z,60.5
2019-03-16T08:34:51.614Z,60.6
2019-03-16T08:35:42.822Z,60.8
2019-03-16T08:36:32.361Z,60.8
2019-03-16T08:37:22.174Z,60.9
2019-03-16T08:38:12.424Z,60.9
2019-03-16T08:39:02.759Z,61
2019-03-16T08:39:52.852Z,61.2
2019-03-16T08:40:42.459Z,61.3
2019-03-16T08:41:32.941Z,61.5
2019-03-16T08:42:23.343Z,61.6
2019-03-16T08:43:11.543Z,61.8
2019-03-16T08:44:02.730Z,61.9
2019-03-16T08:44:52.681Z,62.1
2019-03-16T08:45:41.998Z,62.3
2019-03-16T08:46:31.416Z,62.4
2019-03-16T08:47:22.163Z,62.5
2019-03-16T08:48:27.001Z,62.6
2019-03-16T08:49:02.633Z,62.6
2019-03-16T08:49:52.991Z,62.7
2019-03-16T08:50:43.571Z,62.7
2019-03-16T08:51:33.078Z,62.8
2019-03-16T08:52:23.458Z,62.9
2019-03-16T08:53:13.516Z,63
2019-03-16T08:54:03.568Z,63.1
2019-03-16T08:54:53.377Z,63.1
2019-03-16T08:55:43.663Z,62.9
2019-03-16T08:56:33.950Z,62.9
2019-03-16T08:57:23.567Z,62.8
2019-03-16T08:58:13.903Z,63
2019-03-16T08:59:04.013Z,63.3
2019-03-16T08:59:53.986Z,63.6
2019-03-16T09:00:44.285Z,63.8
2019-03-16T09:01:34.084Z,63.9
2019-03-16T09:02:23.850Z,63.8
2019-03-16T09:03:14.177Z,63.8
2019-03-16T09:04:04.237Z,63.7
2019-03-16T09:04:53.750Z,63.8
2019-03-16T09:05:44.690Z,64
2019-03-16T09:06:34.508Z,64.3
2019-03-16T09:07:23.790Z,64.5
2019-03-16T09:08:15.175Z,64.7
2019-03-16T09:09:04.405Z,64.8
2019-03-16T09:09:54.380Z,64.9
2019-03-16T09:10:44.435Z,65
2019-03-16T09:11:34.772Z,65.1
2019-03-16T09:12:25.223Z,65.2
2019-03-16T09:13:14.624Z,65.1
2019-03-16T09:14:04.407Z,65
2019-03-16T09:14:55.339Z,64.8
2019-03-16T09:15:45.139Z,64.6
2019-03-16T09:16:34.965Z,64.6
2019-03-16T09:17:25.208Z,64.8
2019-03-16T09:18:15.242Z,64.9
2019-03-16T09:19:05.891Z,65.1
2019-03-16T09:19:55.165Z,65.3
2019-03-16T09:20:45.714Z,65.4
2019-03-16T09:21:35.777Z,65.5
2019-03-16T09:22:26.109Z,65.6
2019-03-16T09:23:15.372Z,65.6
2019-03-16T09:24:05.179Z,65.7
2019-03-16T09:24:55.792Z,65.8
2019-03-16T09:25:45.593Z,65.9
2019-03-16T09:26:36.128Z,65.9
2019-03-16T09:27:37.237Z,65.9
2019-03-16T09:28:24.014Z,66
2019-03-16T09:29:19.297Z,66.1
2019-03-16T09:29:56.055Z,66.3
2019-03-16T09:30:45.580Z,66.3
2019-03-16T09:31:36.493Z,66.3
2019-03-16T09:32:25.964Z,66.3
2019-03-16T09:33:17.844Z,66.4
2019-03-16T09:34:06.190Z,66.3
2019-03-16T09:34:56.039Z,66.3
2019-03-16T09:35:46.387Z,66.2
2019-03-16T09:36:36.433Z,66.1
2019-03-16T09:37:27.145Z,66.1
2019-03-16T09:38:16.689Z,66
2019-03-16T09:39:06.437Z,66
2019-03-16T09:39:56.795Z,66.1
2019-03-16T09:40:46.909Z,66.3
2019-03-16T09:41:36.988Z,66.5
2019-03-16T09:42:26.479Z,66.7
2019-03-16T09:43:17.319Z,66.8
2019-03-16T09:44:07.381Z,66.8
2019-03-16T09:44:57.419Z,66.9
2019-03-16T09:45:46.934Z,67.1
2019-03-16T09:46:37.266Z,67.3
2019-03-16T09:47:27.043Z,67.4
2019-03-16T09:48:17.117Z,67.5
2019-03-16T09:49:08.014Z,67.6
2019-03-16T09:49:58.051Z,67.6
2019-03-16T09:51:01.959Z,67.6
2019-03-16T09:51:36.783Z,67.6
2019-03-16T09:52:28.050Z,67.6
2019-03-16T09:53:17.458Z,67.7
2019-03-16T09:54:08.086Z,67.8
2019-03-16T09:54:57.471Z,67.9
2019-03-16T09:55:47.928Z,68.1
2019-03-16T09:56:37.980Z,68.2
2019-03-16T09:57:28.064Z,68.2
2019-03-16T09:58:31.740Z,68.3
2019-03-16T09:59:07.609Z,68.3
2019-03-16T09:59:58.220Z,68.3
2019-03-16T10:00:47.709Z,68.4
2019-03-16T10:01:38.194Z,68.4
2019-03-16T10:02:28.642Z,68.5
2019-03-16T10:03:17.889Z,68.6
2019-03-16T10:04:08.247Z,68.6
2019-03-16T10:06:35.722Z,68.4
2019-03-16T10:07:26.073Z,68.3
2019-03-16T10:08:18.845Z,68.4
2019-03-16T10:09:05.931Z,68.4
2019-03-16T10:09:56.523Z,68.4
2019-03-16T10:10:46.614Z,68.6
2019-03-16T10:11:35.875Z,68.6
2019-03-16T10:12:26.513Z,68.8
2019-03-16T10:13:15.754Z,68.9
2019-03-16T10:14:06.834Z,68.9
2019-03-16T10:14:56.081Z,68.6
2019-03-16T10:15:46.112Z,68.1
2019-03-16T10:16:36.731Z,67.8
2019-03-16T10:17:27.064Z,67.9
2019-03-16T10:18:16.948Z,68.1
2019-03-16T10:19:06.716Z,68.3
2019-03-16T10:19:56.403Z,68.5
2019-03-16T10:20:46.460Z,68.6
2019-03-16T10:21:36.836Z,68.6
2019-03-16T10:22:27.232Z,68.6
2019-03-16T10:23:16.678Z,68.6
2019-03-16T10:24:06.996Z,68.5
2019-03-16T10:24:57.330Z,68.5
2019-03-16T10:25:47.095Z,68.4
2019-03-16T10:26:39.873Z,68.3
2019-03-16T10:27:26.693Z,68.3
2019-03-16T10:28:17.277Z,68.2
2019-03-16T10:29:07.413Z,68.1
2019-03-16T10:29:57.481Z,67.9
2019-03-16T10:30:47.160Z,67.7
2019-03-16T10:31:37.805Z,67.5
2019-03-16T10:32:27.113Z,67.3
2019-03-16T10:33:17.673Z,67.2
2019-03-16T10:34:08.010Z,67.1
2019-03-16T10:34:57.738Z,67.1
2019-03-16T10:35:47.843Z,67.1
2019-03-16T10:36:37.645Z,67.1
2019-03-16T10:37:28.207Z,66.9
2019-03-16T10:38:18.280Z,66.9
2019-03-16T10:39:08.136Z,66.9
2019-03-16T10:39:58.381Z,66.8
2019-03-16T10:40:48.457Z,66.9
2019-03-16T10:41:37.939Z,67
2019-03-16T10:42:28.843Z,67.1
2019-03-16T10:43:18.409Z,67.2
2019-03-16T10:44:08.672Z,67.2
2019-03-16T10:44:58.998Z,67.1
2019-03-16T10:45:48.251Z,67
2019-03-16T10:46:38.952Z,67
2019-03-16T10:47:28.659Z,67.1
2019-03-16T10:48:18.707Z,67.1
2019-03-16T10:49:08.861Z,67.1
2019-03-16T10:49:58.878Z,67.2
2019-03-16T10:50:49.102Z,67.3
2019-03-16T10:51:38.958Z,67.3
2019-03-16T10:52:28.453Z,67.2
2019-03-16T10:53:19.611Z,67
2019-03-16T10:54:09.259Z,66.9
2019-03-16T10:54:59.479Z,66.9
2019-03-16T10:55:49.227Z,66.9
2019-03-16T10:56:39.829Z,66.8
2019-03-16T10:57:29.666Z,66.6
2019-03-16T10:58:19.681Z,66.5
2019-03-16T10:59:09.453Z,66.6
2019-03-16T10:59:59.846Z,66.8
2019-03-16T11:00:50.162Z,66.8
2019-03-16T11:01:39.943Z,66.9
2019-03-16T11:02:30.275Z,66.9
2019-03-16T11:03:19.525Z,66.9
2019-03-16T11:04:09.108Z,66.9
2019-03-16T11:04:59.216Z,67
2019-03-16T11:05:50.281Z,67
2019-03-16T11:06:40.338Z,66.9
2019-03-16T11:07:29.224Z,66.8
2019-03-16T11:08:20.466Z,66.3
2019-03-16T11:09:10.518Z,65.8
2019-03-16T11:09:59.420Z,65.4
2019-03-16T11:10:50.358Z,65.3
2019-03-16T11:11:40.768Z,64.9
2019-03-16T11:12:30.691Z,64.5
2019-03-16T11:13:20.023Z,64.3
2019-03-16T11:14:10.062Z,64.3
2019-03-16T11:15:00.051Z,64.4
2019-03-16T11:15:50.727Z,64.6
2019-03-16T11:16:41.355Z,64.7
2019-03-16T11:17:44.822Z,64.8